Terminal Aerodrome Forecast
Issued by NWS

Current Version | Previous Version | Text Only | Print | Product List | Glossary On
Versions: 1 2 3 4 5 6 7 8 9 10 11 12 13 14 15 16 17 18 19 20 21 22 23 24 25 26 27 28 29
000
FTAK31 PAFA 210610 AAA
TAFATA
TAF AMD
PATA 210610Z 2106/2206 25005KT 3SM -SN BR SCT008 OVC015
      TEMPO 2106/2108 1SM -SN BR BKN008
     FM210800 25006KT 5SM -SN SCT008 BKN025
     FM211200 VRB03KT 3SM BR FEW004 SCT100
     FM212000 VRB05KT P6SM BKN100=

USA.gov is the U.S. government's official web portal to all federal, state and local government web resources and services.